Time;durP1;ratioP1;P1;durP2;ratioP2;P2;SDS_P1;SDS_P2;PMS_P1;PMS_P2;Temp;Humidity;BMP_temperature;BMP_pressure;BME280_temperature;BME280_humidity;BME280_pressure;Samples;Min_cycle;Max_cycle;Signal;HPM_P1;HPM_P2
2023/08/17 00:01:41;;;;;;;3.80;0.85;;;22.00;99.90;;;;;;4994372;28;20070;-80
2023/08/17 00:04:06;;;;;;;2.97;1.08;;;22.00;99.90;;;;;;4993840;28;20030;-79
2023/08/17 00:06:32;;;;;;;1.77;0.70;;;22.00;99.90;;;;;;4996228;28;20026;-80
2023/08/17 00:08:58;;;;;;;2.42;1.00;;;22.10;99.90;;;;;;4995182;28;20065;-80
2023/08/17 00:11:23;;;;;;;1.35;0.80;;;22.00;99.90;;;;;;4994469;28;20121;-80
2023/08/17 00:13:49;;;;;;;2.50;1.15;;;22.00;99.90;;;;;;4994178;28;20361;-81
2023/08/17 00:16:15;;;;;;;1.20;0.80;;;21.90;99.90;;;;;;4994687;28;20619;-80
2023/08/17 00:18:40;;;;;;;2.30;1.10;;;21.90;99.90;;;;;;4995357;28;20077;-80
2023/08/17 00:21:06;;;;;;;3.00;1.00;;;21.80;99.90;;;;;;4995311;28;20050;-80
2023/08/17 00:23:31;;;;;;;2.15;0.93;;;21.70;99.90;;;;;;4993596;28;20022;-80
2023/08/17 00:25:58;;;;;;;2.33;1.10;;;21.70;99.90;;;;;;4994256;28;20031;-80
2023/08/17 00:28:24;;;;;;;3.58;1.20;;;21.70;99.90;;;;;;4993038;28;20049;-80
2023/08/17 00:30:50;;;;;;;2.30;1.40;;;21.70;99.90;;;;;;4994102;28;20031;-80
2023/08/17 00:33:16;;;;;;;2.78;1.02;;;21.70;99.90;;;;;;4994104;28;20502;-79
2023/08/17 00:35:42;;;;;;;1.92;1.23;;;21.60;99.90;;;;;;4995194;28;20018;-80
2023/08/17 00:38:08;;;;;;;3.55;1.17;;;21.50;99.90;;;;;;4993524;28;20030;-79
2023/08/17 00:40:34;;;;;;;1.85;1.30;;;21.60;99.90;;;;;;4993448;28;20092;-80
2023/08/17 00:43:00;;;;;;;2.80;1.30;;;21.60;99.90;;;;;;4993816;28;20172;-80
2023/08/17 00:45:26;;;;;;;1.58;1.05;;;21.60;99.90;;;;;;4993768;28;20077;-80
2023/08/17 00:47:56;;;;;;;1.48;0.80;;;21.70;99.90;;;;;;4993303;28;20033;-80
2023/08/17 00:50:22;;;;;;;2.28;1.00;;;21.70;99.90;;;;;;4995036;28;20026;-80
2023/08/17 00:52:48;;;;;;;5.85;0.93;;;21.60;99.90;;;;;;4994285;28;20084;-80
2023/08/17 00:55:14;;;;;;;2.63;1.20;;;21.60;99.90;;;;;;4994572;28;20080;-80
2023/08/17 00:57:41;;;;;;;3.80;1.40;;;21.60;99.90;;;;;;4994200;28;20030;-80
2023/08/17 01:00:09;;;;;;;3.85;1.08;;;21.60;99.90;;;;;;4994418;28;20027;-80
2023/08/17 01:02:35;;;;;;;3.60;1.38;;;21.50;99.90;;;;;;4993447;28;20119;-80
2023/08/17 01:05:01;;;;;;;1.55;1.00;;;21.50;99.90;;;;;;4993929;28;20066;-80
2023/08/17 01:07:26;;;;;;;1.80;0.95;;;21.50;99.90;;;;;;4994387;28;20439;-80
2023/08/17 01:09:52;;;;;;;3.60;1.25;;;21.50;99.90;;;;;;4993880;28;20072;-80
2023/08/17 01:12:33;;;;;;;3.30;0.93;;;21.50;99.90;;;;;;4993060;28;20026;-80
2023/08/17 01:15:05;;;;;;;2.35;1.33;;;21.40;99.90;;;;;;4993733;28;20528;-80
2023/08/17 01:17:42;;;;;;;;;;;21.30;99.90;;;;;;4993619;28;20594;-80
2023/08/17 01:20:13;;;;;;;2.30;1.05;;;21.20;99.90;;;;;;4977396;28;20389;-80
2023/08/17 01:22:41;;;;;;;3.50;1.00;;;21.20;99.90;;;;;;4994426;28;20031;-80
2023/08/17 01:25:07;;;;;;;3.03;1.23;;;21.20;99.90;;;;;;4993806;28;20125;-80
2023/08/17 01:27:40;;;;;;;2.92;1.00;;;21.20;99.90;;;;;;4992690;28;20026;-79
2023/08/17 01:30:07;;;;;;;3.92;1.40;;;21.20;99.90;;;;;;4993820;28;20117;-80
2023/08/17 01:32:54;;;;;;;2.47;1.20;;;21.10;99.90;;;;;;4993908;28;20460;-80
2023/08/17 01:35:51;;;;;;;3.72;1.02;;;21.10;99.90;;;;;;4993728;28;20022;-80
2023/08/17 01:38:20;;;;;;;3.05;1.23;;;21.00;99.90;;;;;;4992262;28;20049;-80
2023/08/17 01:40:47;;;;;;;1.92;1.30;;;21.00;99.90;;;;;;4993494;28;20035;-80
2023/08/17 01:43:14;;;;;;;2.85;1.35;;;21.00;99.90;;;;;;4994106;28;20026;-80
2023/08/17 01:45:40;;;;;;;4.25;1.73;;;21.10;99.90;;;;;;4992699;28;20129;-80
2023/08/17 01:48:06;;;;;;;4.07;1.38;;;21.10;99.90;;;;;;4993188;28;20065;-80
2023/08/17 01:50:31;;;;;;;2.75;1.23;;;21.00;99.90;;;;;;4993467;28;20041;-80
2023/08/17 01:52:57;;;;;;;3.22;1.50;;;20.90;99.90;;;;;;4992616;28;20026;-80
2023/08/17 01:55:23;;;;;;;4.22;1.70;;;20.90;99.90;;;;;;4992349;28;20022;-80
2023/08/17 01:57:49;;;;;;;3.88;1.73;;;21.00;99.90;;;;;;4992759;28;20118;-80
2023/08/17 02:00:15;;;;;;;2.20;1.17;;;21.00;99.90;;;;;;4996139;28;20507;-79
2023/08/17 02:02:41;;;;;;;2.70;1.48;;;21.00;99.90;;;;;;4981662;28;20045;-80
2023/08/17 02:05:07;;;;;;;3.15;1.35;;;20.90;99.90;;;;;;4960786;28;20117;-80
2023/08/17 02:07:33;;;;;;;2.80;1.60;;;20.90;99.90;;;;;;4960040;28;20037;-81
2023/08/17 02:09:58;;;;;;;3.97;1.60;;;20.80;99.90;;;;;;4976538;28;20039;-81
2023/08/17 02:12:24;;;;;;;3.50;1.40;;;20.80;99.90;;;;;;4959768;28;20037;-81
2023/08/17 02:14:50;;;;;;;3.67;1.33;;;20.80;99.90;;;;;;4960543;28;20027;-81
2023/08/17 02:17:16;;;;;;;3.92;1.90;;;20.80;99.90;;;;;;4960426;28;20026;-80
2023/08/17 02:19:43;;;;;;;4.18;1.63;;;20.80;99.90;;;;;;4960126;28;20027;-80
2023/08/17 02:22:09;;;;;;;4.22;1.60;;;20.70;99.90;;;;;;4961130;28;20039;-81
2023/08/17 02:24:34;;;;;;;3.35;1.50;;;20.70;99.90;;;;;;4979212;28;20031;-80
2023/08/17 02:27:00;;;;;;;4.82;1.55;;;20.70;99.90;;;;;;4979133;28;20031;-81
2023/08/17 02:29:25;;;;;;;4.40;1.58;;;20.60;99.90;;;;;;4960352;28;20391;-80
2023/08/17 02:31:51;;;;;;;4.28;2.00;;;20.70;99.90;;;;;;4960492;28;20033;-82
2023/08/17 02:34:16;;;;;;;6.43;2.17;;;20.70;99.90;;;;;;4978152;28;20105;-82
2023/08/17 02:36:42;;;;;;;4.45;2.10;;;20.70;99.90;;;;;;4960784;28;20114;-82
2023/08/17 02:39:08;;;;;;;5.25;1.90;;;20.70;99.90;;;;;;4960764;28;20460;-82
2023/08/17 02:41:33;;;;;;;6.20;2.13;;;20.60;99.90;;;;;;4960006;28;20070;-82
2023/08/17 02:44:01;;;;;;;3.90;1.65;;;20.50;99.90;;;;;;4960330;28;20114;-82
2023/08/17 02:46:26;;;;;;;5.15;1.80;;;20.50;99.90;;;;;;4959810;28;20051;-82
2023/08/17 02:48:53;;;;;;;3.83;1.75;;;20.40;99.90;;;;;;4977879;28;20031;-82
2023/08/17 02:51:18;;;;;;;5.03;2.00;;;20.40;99.90;;;;;;4977090;28;20027;-81
2023/08/17 02:53:44;;;;;;;3.72;1.92;;;20.40;99.90;;;;;;4960359;28;20084;-82
2023/08/17 02:56:12;;;;;;;4.57;1.77;;;20.50;99.90;;;;;;4960338;28;20027;-82
2023/08/17 02:58:40;;;;;;;7.05;1.85;;;20.50;99.90;;;;;;4959861;28;20035;-82
2023/08/17 03:01:09;;;;;;;4.75;1.90;;;20.50;99.90;;;;;;4960476;28;20133;-82
2023/08/17 03:03:35;;;;;;;5.88;1.67;;;20.50;99.90;;;;;;4959378;28;20030;-82
2023/08/17 03:06:02;;;;;;;3.58;1.95;;;20.50;99.90;;;;;;4959964;28;20588;-82
2023/08/17 03:08:27;;;;;;;5.78;2.40;;;20.40;99.90;;;;;;4959849;28;20117;-82
2023/08/17 03:10:53;;;;;;;4.85;1.63;;;20.50;99.90;;;;;;4959296;28;20066;-82
2023/08/17 03:13:18;;;;;;;4.93;1.83;;;20.40;99.90;;;;;;4959678;28;20030;-81
2023/08/17 03:15:44;;;;;;;5.88;2.05;;;20.40;99.90;;;;;;4959927;28;20027;-82
2023/08/17 03:18:10;;;;;;;5.50;2.08;;;20.40;99.90;;;;;;4960230;28;20090;-82
2023/08/17 03:20:35;;;;;;;4.90;1.95;;;20.40;99.90;;;;;;4959451;28;20038;-82
2023/08/17 03:23:01;;;;;;;5.00;2.38;;;20.40;99.90;;;;;;4960038;28;20456;-82
2023/08/17 03:25:27;;;;;;;2.92;2.00;;;20.40;99.90;;;;;;4959360;28;20053;-83
2023/08/17 03:27:52;;;;;;;4.85;2.25;;;20.40;99.90;;;;;;4977057;28;20030;-82
2023/08/17 03:30:18;;;;;;;5.90;2.17;;;20.40;99.90;;;;;;4959447;28;20494;-80
2023/08/17 03:32:43;;;;;;;6.93;2.13;;;20.40;99.90;;;;;;4960028;28;20089;-83
2023/08/17 03:35:09;;;;;;;3.17;2.00;;;20.40;99.90;;;;;;4959538;28;20026;-82
2023/08/17 03:37:34;;;;;;;6.00;2.50;;;20.50;99.90;;;;;;4976195;28;20023;-82
2023/08/17 03:40:00;;;;;;;9.38;2.92;;;20.50;99.90;;;;;;4959508;28;20030;-83
2023/08/17 03:42:26;;;;;;;7.57;3.15;;;20.60;99.90;;;;;;4958477;28;20502;-80
2023/08/17 03:44:52;;;;;;;9.32;3.40;;;20.50;99.90;;;;;;4955718;28;20097;-80
2023/08/17 03:47:18;;;;;;;7.82;3.72;;;20.50;99.90;;;;;;4965002;28;20027;-80
2023/08/17 03:49:44;;;;;;;8.40;3.45;;;20.50;99.90;;;;;;4975665;28;20030;-80
2023/08/17 03:52:09;;;;;;;5.88;3.20;;;20.40;99.90;;;;;;4991742;28;20030;-80
2023/08/17 03:54:36;;;;;;;7.10;3.42;;;20.50;99.90;;;;;;4990987;28;20512;-80
2023/08/17 03:57:02;;;;;;;9.13;3.80;;;20.50;99.90;;;;;;4991317;28;20062;-80
2023/08/17 03:59:27;;;;;;;7.38;3.65;;;20.50;99.90;;;;;;4974658;28;20387;-80
2023/08/17 04:01:53;;;;;;;6.45;3.90;;;20.50;99.90;;;;;;4975125;28;20035;-80
2023/08/17 04:04:19;;;;;;;6.38;3.63;;;20.50;99.90;;;;;;4991235;28;20523;-80
2023/08/17 04:06:45;;;;;;;8.43;3.92;;;20.50;99.90;;;;;;4974731;28;20022;-80
2023/08/17 04:09:10;;;;;;;7.20;3.65;;;20.40;99.90;;;;;;4991414;28;20122;-81
2023/08/17 04:11:38;;;;;;;7.93;3.65;;;20.40;99.90;;;;;;4974868;28;20038;-80
2023/08/17 04:14:04;;;;;;;7.10;3.70;;;20.40;99.90;;;;;;4991391;28;20113;-81
2023/08/17 04:16:30;;;;;;;5.60;3.38;;;20.40;99.90;;;;;;4974992;28;20062;-80
2023/08/17 04:18:55;;;;;;;7.85;3.88;;;20.30;99.90;;;;;;4991056;28;20026;-80
2023/08/17 04:21:21;;;;;;;6.10;2.90;;;20.30;99.90;;;;;;4974386;28;20093;-80
2023/08/17 04:23:47;;;;;;;8.10;3.58;;;20.20;99.90;;;;;;4974985;28;20034;-81
2023/08/17 04:26:13;;;;;;;9.63;3.45;;;20.30;99.90;;;;;;4991049;28;20113;-80
2023/08/17 04:28:38;;;;;;;6.45;2.75;;;20.20;99.90;;;;;;4975856;28;20154;-80
2023/08/17 04:31:04;;;;;;;4.75;2.85;;;20.20;99.90;;;;;;4976041;28;20388;-80
2023/08/17 04:33:30;;;;;;;7.82;3.60;;;20.30;99.90;;;;;;4990582;28;20050;-81
2023/08/17 04:35:56;;;;;;;6.43;3.50;;;20.30;99.90;;;;;;4974926;28;20023;-81
2023/08/17 04:38:21;;;;;;;6.47;3.53;;;20.30;99.90;;;;;;4990801;28;20026;-81
2023/08/17 04:40:47;;;;;;;11.23;3.90;;;20.20;99.90;;;;;;4990827;28;20387;-81
2023/08/17 04:43:13;;;;;;;7.28;4.30;;;20.20;99.90;;;;;;4975534;28;20031;-81
2023/08/17 04:45:38;;;;;;;6.68;3.97;;;20.10;99.90;;;;;;4990142;28;20072;-81
2023/08/17 04:48:05;;;;;;;8.70;4.50;;;20.10;99.90;;;;;;4975689;28;20034;-81
2023/08/17 04:50:32;;;;;;;7.53;4.35;;;20.00;99.90;;;;;;4975480;28;20482;-79
2023/08/17 04:52:57;;;;;;;8.55;4.55;;;20.00;99.90;;;;;;4990694;28;20054;-80
2023/08/17 04:55:23;;;;;;;10.52;4.50;;;20.00;99.90;;;;;;4974142;28;20031;-79
2023/08/17 04:57:48;;;;;;;9.32;4.70;;;20.00;99.90;;;;;;4990608;28;20104;-80
2023/08/17 05:00:15;;;;;;;8.48;5.00;;;20.00;99.90;;;;;;4990877;28;20034;-80
2023/08/17 05:02:41;;;;;;;9.50;4.85;;;20.00;99.90;;;;;;4989967;28;20046;-80
2023/08/17 05:05:09;;;;;;;11.63;4.75;;;20.00;99.90;;;;;;4975408;28;20027;-80
2023/08/17 05:07:35;;;;;;;7.57;4.55;;;20.00;99.90;;;;;;4974438;28;20027;-82
2023/08/17 05:10:01;;;;;;;7.78;4.07;;;20.00;99.90;;;;;;4974427;28;20058;-82
2023/08/17 05:12:27;;;;;;;9.30;5.10;;;20.10;99.90;;;;;;4990016;28;20031;-79
2023/08/17 05:14:52;;;;;;;9.90;5.50;;;20.00;99.90;;;;;;4983400;28;20033;-80
2023/08/17 05:17:18;;;;;;;5.85;4.13;;;20.10;99.90;;;;;;4975642;28;20065;-80
2023/08/17 05:19:43;;;;;;;7.65;4.43;;;20.20;99.90;;;;;;4973577;28;20494;-80
2023/08/17 05:22:11;;;;;;;10.27;4.45;;;20.30;99.90;;;;;;4975086;28;20118;-81
2023/08/17 05:24:37;;;;;;;7.97;4.03;;;20.30;99.90;;;;;;4973514;28;20122;-81
2023/08/17 05:27:03;;;;;;;8.32;4.38;;;20.30;99.90;;;;;;4973943;28;20070;-83
2023/08/17 05:29:29;;;;;;;6.60;4.40;;;20.30;99.90;;;;;;4973907;28;20058;-81
2023/08/17 05:31:54;;;;;;;10.68;4.53;;;20.30;99.90;;;;;;4974376;28;20089;-80
2023/08/17 05:34:20;;;;;;;5.53;3.50;;;20.30;99.90;;;;;;4993208;28;20089;-81
2023/08/17 05:36:45;;;;;;;7.85;4.30;;;20.40;99.90;;;;;;4993584;28;20026;-79
2023/08/17 05:39:11;;;;;;;6.30;3.80;;;20.40;99.90;;;;;;4977830;28;20122;-81
2023/08/17 05:41:37;;;;;;;6.35;3.80;;;20.30;99.90;;;;;;4993489;28;20067;-79
2023/08/17 05:44:02;;;;;;;6.22;3.55;;;20.40;99.90;;;;;;4979916;28;20030;-79
2023/08/17 05:46:28;;;;;;;7.10;3.63;;;20.40;99.90;;;;;;4980493;28;20058;-79
2023/08/17 05:48:55;;;;;;;7.13;3.65;;;20.40;99.90;;;;;;4995909;28;20138;-79
2023/08/17 05:51:20;;;;;;;6.65;3.42;;;20.50;99.90;;;;;;4977433;28;20067;-79
2023/08/17 05:53:46;;;;;;;6.22;3.55;;;20.50;99.90;;;;;;4977025;28;20125;-79
2023/08/17 05:56:11;;;;;;;9.15;3.55;;;20.60;99.90;;;;;;4996261;28;20078;-79
2023/08/17 05:58:37;;;;;;;9.93;3.70;;;20.60;99.90;;;;;;4980588;28;20034;-79
2023/08/17 06:01:07;;;;;;;7.20;4.03;;;20.50;99.90;;;;;;4980083;28;20400;-80
2023/08/17 06:03:33;;;;;;;6.32;3.15;;;20.50;99.90;;;;;;4996607;28;20031;-79
2023/08/17 06:05:59;;;;;;;6.13;3.15;;;20.50;99.90;;;;;;4981490;28;20070;-79
2023/08/17 06:08:24;;;;;;;7.07;3.33;;;20.50;99.90;;;;;;4981785;28;20041;-79
2023/08/17 06:10:50;;;;;;;6.50;2.80;;;20.60;99.90;;;;;;4981354;28;20041;-80
2023/08/17 06:13:15;;;;;;;7.07;2.53;;;20.60;99.90;;;;;;4997226;28;20126;-80
2023/08/17 06:15:41;;;;;;;6.50;2.60;;;20.70;99.90;;;;;;4996697;28;20460;-80
2023/08/17 06:18:07;;;;;;;5.63;2.35;;;20.70;99.90;;;;;;4981918;28;20115;-80
2023/08/17 06:20:32;;;;;;;4.43;2.30;;;20.70;99.90;;;;;;4981603;28;20050;-80
2023/08/17 06:22:58;;;;;;;4.10;1.90;;;20.70;99.90;;;;;;4981389;28;20535;-80
2023/08/17 06:25:24;;;;;;;3.78;2.00;;;20.80;99.90;;;;;;4996756;28;20026;-80
2023/08/17 06:27:49;;;;;;;5.43;2.10;;;20.90;99.90;;;;;;4973152;28;20022;-79
2023/08/17 06:30:15;;;;;;;4.20;1.90;;;20.90;99.90;;;;;;4977795;28;20031;-80
2023/08/17 06:32:41;;;;;;;3.05;1.70;;;21.00;99.90;;;;;;4972433;28;20035;-80
2023/08/17 06:35:07;;;;;;;6.55;2.47;;;21.00;99.90;;;;;;4960479;29;20034;-80
2023/08/17 06:37:33;;;;;;;4.18;2.25;;;21.10;99.90;;;;;;4969714;28;20084;-79
2023/08/17 06:39:58;;;;;;;4.72;2.10;;;21.10;99.90;;;;;;4994952;28;20090;-80
2023/08/17 06:42:24;;;;;;;4.53;2.15;;;21.10;99.90;;;;;;4986800;28;20035;-81
2023/08/17 06:44:50;;;;;;;4.68;2.17;;;21.10;99.90;;;;;;4994062;28;20624;-81
2023/08/17 06:47:15;;;;;;;4.25;2.45;;;21.20;99.90;;;;;;4971291;28;20102;-80
2023/08/17 06:49:41;;;;;;;3.95;2.25;;;21.20;99.90;;;;;;4972456;28;20058;-80
2023/08/17 06:52:06;;;;;;;7.13;2.45;;;21.20;99.90;;;;;;4979697;28;20035;-80
2023/08/17 06:54:32;;;;;;;4.95;2.25;;;21.30;99.90;;;;;;4960150;29;20027;-79
2023/08/17 06:56:58;;;;;;;5.90;2.70;;;21.40;99.90;;;;;;4981352;28;20056;-80
2023/08/17 06:59:24;;;;;;;8.27;2.75;;;21.40;99.90;;;;;;4995340;28;20373;-79
2023/08/17 07:01:49;;;;;;;5.57;2.53;;;21.40;99.90;;;;;;4979900;28;20107;-80
2023/08/17 07:04:15;;;;;;;30.58;5.22;;;21.50;99.90;;;;;;4995664;28;20019;-81
2023/08/17 07:06:41;;;;;;;18.17;5.18;;;21.60;99.90;;;;;;4977033;28;20027;-80
2023/08/17 07:09:07;;;;;;;31.52;8.40;;;21.50;99.90;;;;;;4972361;28;20041;-80
2023/08/17 07:11:32;;;;;;;72.03;16.10;;;21.50;99.90;;;;;;4958050;28;20106;-80
2023/08/17 07:13:58;;;;;;;29.20;8.68;;;21.60;99.90;;;;;;4981839;28;20480;-80
2023/08/17 07:16:23;;;;;;;18.98;6.35;;;21.60;99.90;;;;;;4994056;28;20026;-80
2023/08/17 07:18:49;;;;;;;43.80;10.68;;;21.70;99.90;;;;;;4981320;28;20069;-79
2023/08/17 07:21:15;;;;;;;31.52;7.25;;;21.80;99.90;;;;;;4994497;28;20484;-80
2023/08/17 07:23:45;;;;;;;19.85;7.00;;;21.80;99.90;;;;;;4982023;28;20027;-80
2023/08/17 07:26:10;;;;;;;17.23;5.40;;;21.80;99.90;;;;;;4975107;28;20082;-79
2023/08/17 07:28:36;;;;;;;11.25;4.13;;;21.70;99.90;;;;;;4969323;28;20469;-80
2023/08/17 07:31:01;;;;;;;11.02;3.70;;;21.80;99.90;;;;;;4991951;28;20120;-80
2023/08/17 07:33:27;;;;;;;11.20;3.92;;;21.80;99.90;;;;;;4980357;28;20499;-80
2023/08/17 07:35:54;;;;;;;12.07;3.90;;;21.90;99.90;;;;;;4968692;28;20078;-80
2023/08/17 07:38:20;;;;;;;10.18;2.88;;;21.90;99.90;;;;;;4975800;28;20038;-80
2023/08/17 07:40:45;;;;;;;8.23;3.00;;;21.90;99.90;;;;;;4971229;28;20074;-80
2023/08/17 07:43:11;;;;;;;6.32;2.63;;;22.00;99.90;;;;;;4955927;29;20027;-80
2023/08/17 07:45:36;;;;;;;3.08;2.08;;;22.10;99.90;;;;;;4982725;28;20050;-80
2023/08/17 07:48:02;;;;;;;24.52;7.60;;;22.10;99.90;;;;;;4973242;28;20030;-80
2023/08/17 07:55:39;;;;;;;35.50;8.77;;;22.30;99.90;;;;;;5246849;23;20452;-86
2023/08/17 07:58:06;;;;;;;66.97;16.13;;;22.40;99.90;;;;;;4949084;28;20058;-86
2023/08/17 08:00:32;;;;;;;15.75;5.90;;;22.40;99.90;;;;;;4937637;29;20020;-86
2023/08/17 08:02:58;;;;;;;23.05;6.22;;;22.40;99.90;;;;;;4936813;29;20485;-86
2023/08/17 08:05:23;;;;;;;18.00;5.88;;;22.40;99.90;;;;;;4936541;29;20168;-87
2023/08/17 08:07:49;;;;;;;16.17;4.63;;;22.40;99.90;;;;;;4937443;29;20078;-87
2023/08/17 08:10:15;;;;;;;15.40;5.20;;;22.40;99.90;;;;;;4937861;29;20039;-87
2023/08/17 08:12:40;;;;;;;18.90;5.40;;;22.50;99.90;;;;;;4953134;29;20032;-87
2023/08/17 08:15:07;;;;;;;12.27;4.30;;;22.50;99.90;;;;;;4937694;29;20031;-87
2023/08/17 08:17:32;;;;;;;11.52;4.10;;;22.50;99.90;;;;;;4937884;29;20465;-88
2023/08/17 08:19:58;;;;;;;6.78;3.15;;;22.50;99.90;;;;;;4955420;29;20027;-89
2023/08/17 08:22:24;;;;;;;6.28;2.80;;;22.60;99.90;;;;;;4956207;29;20028;-87
2023/08/17 08:24:49;;;;;;;8.70;3.95;;;22.70;99.90;;;;;;4956819;29;20043;-87
2023/08/17 08:27:15;;;;;;;15.32;4.47;;;22.70;99.90;;;;;;4952066;29;20495;-86
2023/08/17 08:29:40;;;;;;;15.73;5.05;;;22.70;99.90;;;;;;4954236;29;20027;-88
2023/08/17 08:32:06;;;;;;;23.08;6.43;;;22.80;99.90;;;;;;4943467;29;20540;-87
2023/08/17 08:34:32;;;;;;;15.48;6.00;;;22.90;99.90;;;;;;4940433;29;20516;-87
2023/08/17 08:36:57;;;;;;;27.63;8.45;;;22.90;99.90;;;;;;4937888;29;20035;-87
2023/08/17 08:39:26;;;;;;;9.10;4.45;;;22.90;99.90;;;;;;4935913;29;20020;-87
2023/08/17 08:41:51;;;;;;;21.50;6.55;;;23.00;99.90;;;;;;4936598;29;20111;-87
2023/08/17 08:44:17;;;;;;;20.92;6.15;;;23.00;99.90;;;;;;4937033;29;20453;-87
2023/08/17 08:46:44;;;;;;;12.57;4.40;;;23.10;99.90;;;;;;4937573;29;20040;-87
2023/08/17 08:49:11;;;;;;;17.55;7.22;;;23.20;99.90;;;;;;4937041;29;20035;-86
2023/08/17 08:51:43;;;;;;;15.30;7.93;;;23.20;99.90;;;;;;4937397;29;20032;-87
2023/08/17 08:54:13;;;;;;;14.43;8.45;;;23.20;99.90;;;;;;4932731;29;20075;-87
2023/08/17 08:56:42;;;;;;;15.20;9.13;;;23.20;99.90;;;;;;4936050;29;20126;-87
2023/08/17 08:59:09;;;;;;;13.40;8.15;;;23.20;99.90;;;;;;4936995;29;20024;-87
2023/08/17 09:01:35;;;;;;;17.13;9.45;;;23.30;99.90;;;;;;4936936;29;20413;-87
2023/08/17 09:04:02;;;;;;;17.05;9.07;;;23.30;99.90;;;;;;4951470;29;20071;-88
2023/08/17 09:06:30;;;;;;;17.30;9.15;;;23.30;99.90;;;;;;4951443;29;20042;-86
2023/08/17 09:08:57;;;;;;;26.45;11.43;;;23.30;99.90;;;;;;4951008;28;20023;-88
2023/08/17 09:11:23;;;;;;;38.20;14.60;;;23.30;99.90;;;;;;4951538;29;20055;-87
2023/08/17 09:13:49;;;;;;;19.23;10.15;;;23.40;99.90;;;;;;4952124;29;20074;-86
2023/08/17 09:16:15;;;;;;;52.20;17.25;;;23.50;99.90;;;;;;4936669;29;20063;-87
2023/08/17 09:18:41;;;;;;;46.83;15.65;;;23.60;99.90;;;;;;4936978;29;20031;-87
2023/08/17 09:21:07;;;;;;;18.50;10.48;;;23.70;99.90;;;;;;4935631;29;20126;-86
2023/08/17 09:23:32;;;;;;;30.60;12.35;;;23.60;99.90;;;;;;4951742;29;20111;-87
2023/08/17 09:26:08;;;;;;;28.88;11.13;;;23.60;99.90;;;;;;4937277;29;20106;-88
2023/08/17 09:28:38;;;;;;;54.50;16.67;;;23.60;99.90;;;;;;4936795;29;20024;-88
2023/08/17 09:31:04;;;;;;;23.92;9.57;;;23.70;99.90;;;;;;4951260;29;20408;-87
2023/08/17 09:33:31;;;;;;;14.48;7.57;;;23.70;99.90;;;;;;4935886;29;20035;-88
2023/08/17 09:35:58;;;;;;;17.60;7.00;;;23.70;99.90;;;;;;4935690;29;20047;-85
2023/08/17 09:38:25;;;;;;;17.30;8.90;;;23.70;99.90;;;;;;4936289;29;20048;-87
2023/08/17 09:40:51;;;;;;;18.00;8.13;;;23.70;99.90;;;;;;4951619;29;20032;-87
2023/08/17 09:43:18;;;;;;;12.27;6.68;;;23.70;99.90;;;;;;4935536;29;20384;-87
2023/08/17 09:45:49;;;;;;;12.25;6.50;;;23.80;99.90;;;;;;4935808;29;20032;-87
2023/08/17 09:48:17;;;;;;;9.70;5.18;;;24.00;99.90;;;;;;4936650;29;20114;-88
2023/08/17 09:50:44;;;;;;;8.75;4.68;;;24.00;99.90;;;;;;4936784;29;20028;-87
2023/08/17 09:53:27;;;;;;;8.93;5.45;;;23.80;99.90;;;;;;4935425;29;20024;-87
2023/08/17 09:55:55;;;;;;;10.63;4.85;;;23.90;99.90;;;;;;4934564;29;20138;-86
2023/08/17 09:58:21;;;;;;;7.00;4.25;;;23.70;99.90;;;;;;4934563;29;20031;-88
2023/08/17 10:00:49;;;;;;;10.07;4.80;;;23.90;99.90;;;;;;4950699;29;20028;-89
2023/08/17 10:03:15;;;;;;;8.68;5.35;;;23.90;99.90;;;;;;4935207;29;20032;-89
2023/08/17 10:05:44;;;;;;;7.40;5.53;;;23.80;99.90;;;;;;4935625;29;20428;-86
2023/08/17 10:08:10;;;;;;;7.43;4.82;;;23.70;99.90;;;;;;4936369;29;20028;-87
2023/08/17 10:10:42;;;;;;;8.98;5.00;;;23.70;99.90;;;;;;4936429;29;20075;-87
2023/08/17 10:13:31;;;;;;;9.57;5.20;;;23.70;99.90;;;;;;4936407;29;20524;-85
2023/08/17 10:16:03;;;;;;;7.65;4.88;;;23.70;99.90;;;;;;4932104;29;20465;-90
2023/08/17 10:18:59;;;;;;;7.13;4.82;;;23.70;99.90;;;;;;4917094;29;20101;-92
2023/08/17 10:21:29;;;;;;;7.95;5.00;;;23.70;99.90;;;;;;4936760;29;20477;-92
2023/08/17 10:23:58;;;;;;;5.82;4.35;;;23.70;99.90;;;;;;4954624;29;20034;-86
2023/08/17 10:26:25;;;;;;;7.95;4.75;;;23.70;99.90;;;;;;4954227;29;20481;-90
2023/08/17 10:28:52;;;;;;;8.23;4.97;;;23.80;99.90;;;;;;4939323;29;20030;-90
2023/08/17 10:31:17;;;;;;;8.77;5.00;;;23.80;99.90;;;;;;4937786;29;20046;-88
2023/08/17 10:33:47;;;;;;;5.70;4.80;;;23.80;99.90;;;;;;4939420;29;20036;-89
2023/08/17 10:36:14;;;;;;;8.57;5.30;;;23.80;99.90;;;;;;4939646;29;20083;-90
2023/08/17 10:38:39;;;;;;;7.40;5.50;;;23.90;99.90;;;;;;4938899;29;20028;-89
2023/08/17 10:41:13;;;;;;;8.25;5.32;;;23.90;99.90;;;;;;4938752;29;20362;-90
2023/08/17 10:43:55;;;;;;;8.48;5.43;;;23.90;99.90;;;;;;4938744;29;20480;-91
2023/08/17 10:46:21;;;;;;;8.27;4.82;;;23.90;99.90;;;;;;4939012;29;20034;-88
2023/08/17 10:48:46;;;;;;;8.05;5.20;;;23.80;99.90;;;;;;4938567;29;20032;-90
2023/08/17 10:51:13;;;;;;;8.68;5.43;;;23.90;99.90;;;;;;4938291;29;20031;-89
2023/08/17 10:53:42;;;;;;;6.93;4.95;;;23.90;99.90;;;;;;4938998;29;20019;-87
2023/08/17 10:56:11;;;;;;;7.97;5.40;;;23.90;99.90;;;;;;4939684;29;20135;-86
2023/08/17 10:58:37;;;;;;;9.40;5.60;;;23.90;99.90;;;;;;4954303;29;20028;-86
2023/08/17 11:01:03;;;;;;;8.35;5.25;;;24.00;99.90;;;;;;4937990;29;20035;-86
2023/08/17 11:03:29;;;;;;;7.38;4.80;;;24.10;99.90;;;;;;4937880;29;20031;-86
2023/08/17 11:05:56;;;;;;;8.55;5.32;;;24.30;99.90;;;;;;4954292;28;20086;-85
2023/08/17 11:08:22;;;;;;;10.55;5.53;;;24.30;99.90;;;;;;4938881;29;20484;-86
2023/08/17 11:11:11;;;;;;;8.07;5.40;;;24.40;99.90;;;;;;4939196;29;20027;-86
2023/08/17 11:13:39;;;;;;;7.15;5.43;;;24.40;99.90;;;;;;4939197;29;20036;-85
2023/08/17 11:16:06;;;;;;;8.85;5.57;;;24.50;99.90;;;;;;4938331;29;20126;-87
2023/08/17 11:18:32;;;;;;;9.05;5.40;;;24.50;99.90;;;;;;4953817;29;20023;-87
2023/08/17 11:20:59;;;;;;;10.30;5.97;;;24.50;99.90;;;;;;4953610;29;20564;-88
2023/08/17 11:23:28;;;;;;;30.30;10.95;;;24.50;99.90;;;;;;4938316;29;20042;-87
2023/08/17 11:26:00;;;;;;;10.98;6.22;;;24.50;99.90;;;;;;4953771;29;20082;-87
2023/08/17 11:28:26;;;;;;;9.27;6.38;;;24.60;99.90;;;;;;4952890;29;20110;-87
2023/08/17 11:31:00;;;;;;;8.80;5.68;;;24.60;99.90;;;;;;4952945;28;20051;-87
2023/08/17 11:33:30;;;;;;;10.00;6.05;;;24.60;99.90;;;;;;4937845;29;20031;-86
2023/08/17 11:36:00;;;;;;;10.03;5.83;;;24.70;99.90;;;;;;4953253;29;20068;-86
2023/08/17 11:38:26;;;;;;;8.60;5.85;;;24.90;99.90;;;;;;4938248;29;20258;-86
2023/08/17 11:40:52;;;;;;;7.85;4.90;;;25.00;99.90;;;;;;4953124;29;20540;-87
2023/08/17 11:43:20;;;;;;;8.80;5.80;;;25.00;99.90;;;;;;4937977;29;20055;-86
2023/08/17 11:45:46;;;;;;;11.60;6.25;;;25.10;99.90;;;;;;4937239;29;20019;-87
2023/08/17 11:48:12;;;;;;;13.00;7.55;;;25.10;99.90;;;;;;4937155;29;20082;-86
2023/08/17 11:50:39;;;;;;;14.77;8.95;;;25.10;99.90;;;;;;4953103;29;20027;-87
2023/08/17 11:53:05;;;;;;;15.40;8.20;;;25.10;99.90;;;;;;4938316;29;20027;-87
2023/08/17 11:55:31;;;;;;;11.43;7.50;;;25.20;99.90;;;;;;4952545;29;20062;-87
2023/08/17 11:57:56;;;;;;;12.52;8.02;;;25.40;99.90;;;;;;4937483;29;20034;-87
2023/08/17 12:00:22;;;;;;;11.95;7.25;;;25.40;99.90;;;;;;4936513;29;20031;-88
2023/08/17 12:02:52;;;;;;;13.18;7.50;;;25.30;99.90;;;;;;4952464;29;20032;-87
2023/08/17 12:05:28;;;;;;;19.02;8.48;;;25.20;99.90;;;;;;4952630;29;20114;-87
2023/08/17 12:07:54;;;;;;;12.65;7.75;;;25.20;99.90;;;;;;4953022;29;20032;-88
2023/08/17 12:10:22;;;;;;;12.57;7.80;;;25.20;99.90;;;;;;4937919;29;20075;-87
2023/08/17 12:12:48;;;;;;;15.85;8.95;;;25.20;99.90;;;;;;4953054;29;20038;-87
2023/08/17 12:15:15;;;;;;;15.10;8.32;;;25.30;99.90;;;;;;4937788;29;20528;-87
2023/08/17 12:17:47;;;;;;;14.52;9.40;;;25.40;99.90;;;;;;4937808;29;20031;-86
2023/08/17 12:20:20;;;;;;;13.15;8.52;;;25.50;99.90;;;;;;4952545;29;20480;-87
2023/08/17 12:22:48;;;;;;;13.48;9.05;;;25.60;99.90;;;;;;4952468;29;20656;-87
2023/08/17 12:25:15;;;;;;;16.08;9.48;;;25.70;99.90;;;;;;4952685;29;20531;-86
2023/08/17 12:27:41;;;;;;;13.65;8.85;;;25.80;99.90;;;;;;4952554;29;20035;-87
2023/08/17 12:30:24;;;;;;;15.45;8.25;;;25.80;99.90;;;;;;4936718;29;20369;-87
2023/08/17 12:32:50;;;;;;;13.07;8.80;;;25.80;99.90;;;;;;4936629;29;20032;-86
2023/08/17 12:35:15;;;;;;;13.77;9.18;;;25.90;99.90;;;;;;4952035;28;20446;-86
2023/08/17 12:37:41;;;;;;;13.18;8.20;;;25.90;99.90;;;;;;4936495;29;20028;-91
2023/08/17 12:40:08;;;;;;;15.15;8.10;;;26.10;99.90;;;;;;4937705;29;20023;-91
2023/08/17 12:42:33;;;;;;;12.52;8.40;;;26.20;99.90;;;;;;4936929;29;20487;-91
2023/08/17 12:44:59;;;;;;;13.10;8.35;;;26.30;99.90;;;;;;4936861;29;20027;-90
2023/08/17 12:47:24;;;;;;;12.50;8.10;;;26.40;99.90;;;;;;4937132;29;20040;-90